createdAt,value
2022-09-03T00:00:57.451Z,14.35
2022-09-03T00:03:33.715Z,14.30
2022-09-03T00:06:11.392Z,14.30
2022-09-03T00:08:45.262Z,14.33
2022-09-03T00:35:07.123Z,14.08
2022-09-03T00:37:38.319Z,14.10
2022-09-03T00:40:13.068Z,14.06
2022-09-03T00:42:55.797Z,14.06
2022-09-03T00:45:34.064Z,14.02
2022-09-03T00:48:42.360Z,13.95
2022-09-03T00:51:37.498Z,13.97
2022-09-03T00:54:40.325Z,13.89
2022-09-03T00:57:28.971Z,13.85
2022-09-03T01:00:09.172Z,13.84
2022-09-03T01:03:01.957Z,13.83
2022-09-03T01:05:47.078Z,13.91
2022-09-03T01:08:39.262Z,13.87
2022-09-03T01:11:20.103Z,13.89
2022-09-03T01:14:03.285Z,13.82
2022-09-03T01:16:40.857Z,13.83
2022-09-03T01:19:38.237Z,13.86
2022-09-03T01:22:46.464Z,13.75
2022-09-03T01:25:17.730Z,13.80
2022-09-03T01:28:10.345Z,13.82
2022-09-03T01:30:47.447Z,13.77
2022-09-03T01:33:33.923Z,13.76
2022-09-03T01:36:12.292Z,13.79
2022-09-03T01:38:54.263Z,13.77
2022-09-03T01:41:48.802Z,13.84
2022-09-03T01:44:37.561Z,13.72
2022-09-03T01:47:19.080Z,13.73
2022-09-03T01:49:59.589Z,13.73
2022-09-03T01:52:50.514Z,13.57
2022-09-03T01:55:21.317Z,13.48
2022-09-03T01:57:57.525Z,13.55
2022-09-03T02:00:25.207Z,13.64
2022-09-03T02:02:53.171Z,13.57
2022-09-03T02:05:25.824Z,13.57
2022-09-03T02:08:03.137Z,13.53
2022-09-03T02:10:38.765Z,13.46
2022-09-03T02:13:08.677Z,13.48
2022-09-03T02:15:37.733Z,13.38
2022-09-03T02:18:07.979Z,13.37
2022-09-03T02:20:34.759Z,13.38
2022-09-03T02:23:02.663Z,13.49
2022-09-03T02:25:33.737Z,13.39
2022-09-03T02:28:01.078Z,13.39
2022-09-03T02:30:28.145Z,13.39
2022-09-03T02:32:55.098Z,13.35
2022-09-03T02:35:21.896Z,13.25
2022-09-03T02:37:48.610Z,13.33
2022-09-03T02:40:15.335Z,13.29
2022-09-03T02:42:42.095Z,13.13
2022-09-03T02:45:27.842Z,13.13
2022-09-03T02:47:59.828Z,13.10
2022-09-03T02:50:27.151Z,13.08
2022-09-03T02:52:53.976Z,13.00
2022-09-03T02:55:20.779Z,12.94
2022-09-03T02:57:47.489Z,12.90
2022-09-03T03:00:14.853Z,12.86
2022-09-03T03:02:42.075Z,12.84
2022-09-03T03:05:10.302Z,12.80
2022-09-03T03:07:38.397Z,12.82
2022-09-03T03:10:05.456Z,12.76
2022-09-03T03:12:32.524Z,12.73
2022-09-03T03:14:59.229Z,12.78
2022-09-03T03:17:26.395Z,12.69
2022-09-03T03:19:53.124Z,12.65
2022-09-03T03:22:19.870Z,12.68
2022-09-03T03:24:46.655Z,12.57
2022-09-03T03:27:15.007Z,12.58
2022-09-03T03:29:41.798Z,12.63
2022-09-03T03:32:08.466Z,12.53
2022-09-03T03:34:35.164Z,12.54
2022-09-03T03:37:02.160Z,12.58
2022-09-03T03:39:28.908Z,12.63
2022-09-03T03:41:56.359Z,12.66
2022-09-03T03:44:23.257Z,12.63
2022-09-03T03:46:49.954Z,12.70
2022-09-03T03:49:16.662Z,12.68
2022-09-03T03:51:43.348Z,12.70
2022-09-03T03:54:10.177Z,12.69
2022-09-03T03:56:39.602Z,12.62
2022-09-03T03:59:06.351Z,12.66
2022-09-03T04:01:33.210Z,12.76
2022-09-03T04:04:00.535Z,12.88
2022-09-03T04:06:27.922Z,12.71
2022-09-03T04:08:57.147Z,12.78
2022-09-03T04:11:24.523Z,12.87
2022-09-03T04:13:51.875Z,12.89
2022-09-03T04:16:24.137Z,12.94
2022-09-03T04:18:51.321Z,12.96
2022-09-03T04:21:21.257Z,12.98
2022-09-03T04:23:49.512Z,13.01
2022-09-03T04:26:19.048Z,13.05
2022-09-03T04:28:45.818Z,13.06
2022-09-03T04:31:14.414Z,13.13
2022-09-03T04:33:41.838Z,13.07
2022-09-03T04:36:14.188Z,13.05
2022-09-03T04:38:43.056Z,13.11
2022-09-03T04:41:12.235Z,13.16
2022-09-03T04:43:39.270Z,13.20
2022-09-03T04:46:10.841Z,13.15
2022-09-03T04:48:44.135Z,13.22
2022-09-03T04:51:13.630Z,13.27
2022-09-03T04:53:42.578Z,13.28
2022-09-03T04:56:21.538Z,13.25
2022-09-03T04:58:50.989Z,13.28
2022-09-03T05:01:20.169Z,13.32
2022-09-03T05:03:47.416Z,13.43
2022-09-03T05:06:17.288Z,13.42
2022-09-03T05:08:49.039Z,13.47
2022-09-03T05:11:19.906Z,13.54
2022-09-03T05:13:50.720Z,13.64
2022-09-03T05:16:17.872Z,13.55
2022-09-03T05:18:45.253Z,13.59
2022-09-03T05:21:14.044Z,13.66
2022-09-03T05:23:42.752Z,13.71
2022-09-03T05:26:15.365Z,13.75
2022-09-03T05:28:43.154Z,13.72
2022-09-03T05:31:18.043Z,13.73
2022-09-03T05:33:50.749Z,13.90
2022-09-03T05:36:19.652Z,13.90
2022-09-03T05:38:47.757Z,13.95
2022-09-03T05:41:15.496Z,14.00
2022-09-03T05:43:43.397Z,14.01
2022-09-03T05:46:18.503Z,14.02
2022-09-03T05:48:45.271Z,13.98
2022-09-03T05:51:16.878Z,14.05
2022-09-03T05:53:48.199Z,14.03
2022-09-03T05:56:20.482Z,14.08
2022-09-03T05:58:49.195Z,14.14
2022-09-03T06:01:30.105Z,14.13
2022-09-03T06:04:01.169Z,14.05
2022-09-03T06:06:29.661Z,14.18
2022-09-03T06:08:58.756Z,14.32
2022-09-03T06:11:28.320Z,14.34
2022-09-03T06:13:56.873Z,14.39
2022-09-03T06:16:30.841Z,14.41
2022-09-03T06:18:59.830Z,14.50
2022-09-03T06:21:26.865Z,14.52
2022-09-03T06:23:59.441Z,14.62
2022-09-03T06:26:30.764Z,14.62
2022-09-03T06:28:57.932Z,14.70
2022-09-03T06:31:25.545Z,14.82
2022-09-03T06:33:53.814Z,14.95
2022-09-03T06:36:21.636Z,14.94
2022-09-03T06:38:52.287Z,14.98
2022-09-03T06:41:21.250Z,14.99
2022-09-03T06:43:49.347Z,15.01
2022-09-03T06:46:18.185Z,15.11
2022-09-03T06:48:47.633Z,15.07
2022-09-03T06:51:17.173Z,15.13
2022-09-03T06:53:49.545Z,15.12
2022-09-03T06:56:19.154Z,15.15
2022-09-03T06:58:47.890Z,15.18
2022-09-03T07:01:17.565Z,15.24
2022-09-03T07:03:47.676Z,15.27
2022-09-03T07:06:16.602Z,15.33
2022-09-03T07:08:44.157Z,15.38
2022-09-03T07:11:13.388Z,15.42
2022-09-03T07:13:43.338Z,15.43
2022-09-03T07:16:12.318Z,15.46
2022-09-03T07:18:39.916Z,15.38
2022-09-03T07:21:08.814Z,15.35
2022-09-03T07:23:36.908Z,15.39
2022-09-03T07:26:06.657Z,15.49
2022-09-03T07:28:36.033Z,15.54
2022-09-03T07:31:11.961Z,15.49
2022-09-03T07:33:39.531Z,15.55
2022-09-03T07:36:11.335Z,15.68
2022-09-03T07:38:38.198Z,15.75
2022-09-03T07:41:07.669Z,15.83
2022-09-03T07:43:48.554Z,15.90
2022-09-03T07:46:23.664Z,15.75
2022-09-03T07:48:52.454Z,15.88
2022-09-03T07:51:20.747Z,15.92
2022-09-03T07:53:48.750Z,16.04
2022-09-03T07:56:15.908Z,16.14
2022-09-03T07:58:42.773Z,16.17
2022-09-03T08:01:16.917Z,16.25
2022-09-03T08:03:48.132Z,16.28
2022-09-03T08:06:15.838Z,16.29
2022-09-03T08:08:43.329Z,16.43
2022-09-03T08:11:14.992Z,16.52
2022-09-03T08:13:46.561Z,16.60
2022-09-03T08:16:15.187Z,16.55
2022-09-03T08:18:42.299Z,16.64
2022-09-03T08:21:15.979Z,16.63
2022-09-03T08:23:44.344Z,16.65
2022-09-03T08:26:11.967Z,16.71
2022-09-03T08:28:39.058Z,16.77
2022-09-03T08:31:07.915Z,16.91
2022-09-03T08:33:37.602Z,16.88
2022-09-03T08:36:09.596Z,16.96
2022-09-03T08:38:36.951Z,16.98
2022-09-03T08:41:23.876Z,17.02
2022-09-03T08:44:03.182Z,16.98
2022-09-03T08:46:52.085Z,17.09
2022-09-03T08:49:58.691Z,17.14
2022-09-03T08:52:37.646Z,17.15
2022-09-03T08:55:18.253Z,17.19
2022-09-03T08:57:50.791Z,17.17
2022-09-03T09:00:18.048Z,17.20
2022-09-03T09:03:08.245Z,17.21
2022-09-03T09:05:52.036Z,17.29
2022-09-03T09:08:35.424Z,17.37
2022-09-03T09:11:22.414Z,17.45
2022-09-03T09:14:03.919Z,17.47
2022-09-03T09:16:45.151Z,17.54
2022-09-03T09:19:39.759Z,17.42
2022-09-03T09:22:15.078Z,17.36
2022-09-03T09:24:45.073Z,17.48
2022-09-03T09:27:17.287Z,17.61
2022-09-03T09:29:46.849Z,17.71
2022-09-03T09:32:14.760Z,17.84
2022-09-03T09:34:42.079Z,17.97
2022-09-03T09:37:13.527Z,18.12
2022-09-03T09:39:41.380Z,18.23
2022-09-03T09:42:11.381Z,18.19
2022-09-03T09:44:43.590Z,18.34
2022-09-03T09:47:21.870Z,18.37
2022-09-03T09:49:59.870Z,18.47
2022-09-03T09:52:30.371Z,18.56
2022-09-03T09:55:09.944Z,18.58
2022-09-03T09:57:38.132Z,18.63
2022-09-03T10:00:09.339Z,18.67
2022-09-03T10:02:47.675Z,18.74
2022-09-03T10:05:25.958Z,18.82
2022-09-03T10:08:05.392Z,18.88
2022-09-03T10:10:42.480Z,18.99
2022-09-03T10:13:13.448Z,19.04
2022-09-03T10:15:49.057Z,19.08
2022-09-03T10:18:29.253Z,19.15
2022-09-03T10:21:07.808Z,19.24
2022-09-03T10:23:47.176Z,19.26
2022-09-03T10:26:17.508Z,19.29
2022-09-03T10:28:46.619Z,19.37
2022-09-03T10:31:36.859Z,19.46
2022-09-03T10:34:14.933Z,19.47
2022-09-03T10:36:56.448Z,19.45
2022-09-03T10:39:32.564Z,19.76
2022-09-03T10:42:20.293Z,19.98
2022-09-03T10:44:47.007Z,20.00
2022-09-03T10:47:36.151Z,20.19
2022-09-03T10:50:16.127Z,20.21
2022-09-03T10:53:06.121Z,20.34
2022-09-03T10:55:50.361Z,20.13
2022-09-03T10:58:47.520Z,20.27
2022-09-03T11:01:28.043Z,20.51
2022-09-03T11:04:19.105Z,20.65
2022-09-03T11:06:53.673Z,20.85
2022-09-03T11:09:50.664Z,21.07
2022-09-03T11:12:31.537Z,21.36
2022-09-03T11:15:18.514Z,21.56
2022-09-03T11:17:56.993Z,21.74
2022-09-03T11:20:25.686Z,21.44
2022-09-03T11:22:56.458Z,21.21
2022-09-03T11:25:28.660Z,20.97
2022-09-03T11:28:21.411Z,20.67
2022-09-03T11:31:27.127Z,20.58
2022-09-03T11:34:01.761Z,20.65
2022-09-03T11:36:31.476Z,20.95
2022-09-03T11:38:58.298Z,21.24
2022-09-03T11:41:27.510Z,21.47
2022-09-03T11:43:54.871Z,21.47
2022-09-03T11:46:21.950Z,21.27
2022-09-03T11:48:57.876Z,21.11
2022-09-03T11:51:30.499Z,21.09
2022-09-03T11:54:13.625Z,21.14
2022-09-03T11:56:42.328Z,21.16
2022-09-03T11:59:15.143Z,21.23
2022-09-03T12:01:46.548Z,21.46
2022-09-03T12:04:18.274Z,21.41
2022-09-03T12:07:03.473Z,21.30
2022-09-03T12:10:13.837Z,21.28
2022-09-03T12:12:55.197Z,21.22
2022-09-03T12:15:36.484Z,21.27
2022-09-03T12:18:20.747Z,21.33
2022-09-03T12:20:50.959Z,21.21
2022-09-03T12:23:31.259Z,21.16
2022-09-03T12:26:05.531Z,20.99
2022-09-03T12:28:36.989Z,20.82
2022-09-03T12:31:21.691Z,20.69
2022-09-03T12:33:54.262Z,20.88
2022-09-03T12:36:23.031Z,21.25
2022-09-03T12:39:10.870Z,21.26
2022-09-03T12:41:37.983Z,21.25
2022-09-03T12:44:05.347Z,21.26
2022-09-03T12:46:34.280Z,21.20
2022-09-03T12:51:58.139Z,21.17
2022-09-03T12:54:27.215Z,21.36
2022-09-03T12:56:59.065Z,21.31
2022-09-03T12:59:28.068Z,21.30
2022-09-03T13:02:01.049Z,21.48
2022-09-03T13:04:30.246Z,21.55
2022-09-03T13:07:04.616Z,21.50
2022-09-03T13:09:34.114Z,21.69
2022-09-03T13:12:04.876Z,22.03
2022-09-03T13:14:45.330Z,22.32
2022-09-03T13:17:18.493Z,22.70
2022-09-03T13:20:34.129Z,22.77
2022-09-03T13:23:19.359Z,23.05
2022-09-03T13:26:00.690Z,22.54
2022-09-03T13:28:44.230Z,22.28
2022-09-03T13:31:13.636Z,22.15
2022-09-03T13:33:44.643Z,21.89
2022-09-03T13:36:26.124Z,21.73
2022-09-03T13:39:26.183Z,21.55
2022-09-03T13:42:06.217Z,21.47
2022-09-03T13:45:13.564Z,21.56
2022-09-03T13:48:10.200Z,21.60
2022-09-03T13:50:51.068Z,21.45
2022-09-03T13:53:24.697Z,21.63
2022-09-03T13:55:55.538Z,21.89
2022-09-03T13:58:33.616Z,21.93
2022-09-03T14:01:15.610Z,21.79
2022-09-03T14:03:55.509Z,21.79
2022-09-03T14:06:41.387Z,21.65
2022-09-03T14:09:21.711Z,22.20
2022-09-03T14:12:13.258Z,22.83
2022-09-03T14:14:53.865Z,22.94
2022-09-03T14:17:39.560Z,22.86
2022-09-03T14:20:11.274Z,22.62
2022-09-03T14:23:07.996Z,22.44
2022-09-03T14:25:34.748Z,22.33
2022-09-03T14:28:16.281Z,22.57
2022-09-03T14:31:19.091Z,23.25
2022-09-03T14:33:59.751Z,23.87
2022-09-03T14:36:31.592Z,24.51
2022-09-03T14:39:20.712Z,24.98
2022-09-03T14:42:06.455Z,25.15
2022-09-03T14:44:52.203Z,24.75
2022-09-03T14:47:37.294Z,24.49
2022-09-03T14:50:23.554Z,24.07
2022-09-03T14:53:18.290Z,23.58
2022-09-03T14:56:22.399Z,22.87
2022-09-03T14:59:09.316Z,22.95
2022-09-03T15:01:39.388Z,23.62
2022-09-03T15:04:23.785Z,24.10
2022-09-03T15:07:22.758Z,24.44
2022-09-03T15:10:16.963Z,25.19
2022-09-03T15:12:46.765Z,25.40
2022-09-03T15:15:19.651Z,25.36
2022-09-03T15:18:02.577Z,24.67
2022-09-03T15:20:48.873Z,24.09
2022-09-03T15:23:40.468Z,23.73
2022-09-03T15:26:12.958Z,24.10
2022-09-03T15:29:01.959Z,23.94
2022-09-03T15:32:06.584Z,24.81
2022-09-03T15:34:52.084Z,25.63
2022-09-03T15:37:27.553Z,26.23
2022-09-03T15:40:16.142Z,26.53
2022-09-03T15:42:44.681Z,27.14
2022-09-03T15:45:22.295Z,26.50
2022-09-03T15:47:54.423Z,25.74
2022-09-03T15:50:35.746Z,25.50
2022-09-03T15:53:32.017Z,25.77
2022-09-03T15:56:16.292Z,26.06
2022-09-03T15:59:03.319Z,26.44
2022-09-03T16:01:40.195Z,26.68
2022-09-03T16:04:17.285Z,26.54
2022-09-03T16:07:13.471Z,26.16
2022-09-03T16:10:22.750Z,25.69
2022-09-03T16:13:02.278Z,25.06
2022-09-03T16:15:36.876Z,24.67
2022-09-03T16:18:12.497Z,24.67
2022-09-03T16:20:50.552Z,24.45
2022-09-03T16:23:48.117Z,24.48
2022-09-03T16:26:37.109Z,24.39
2022-09-03T16:29:09.565Z,24.13
2022-09-03T16:32:04.257Z,23.87
2022-09-03T16:34:59.129Z,23.47
2022-09-03T16:37:53.470Z,23.03
2022-09-03T16:40:36.641Z,22.55
2022-09-03T16:43:29.886Z,22.36
2022-09-03T16:46:04.160Z,22.12
2022-09-03T16:48:37.238Z,21.95
2022-09-03T16:51:14.288Z,21.86
2022-09-03T16:54:06.284Z,21.63
2022-09-03T16:56:57.844Z,21.49
2022-09-03T16:59:33.325Z,21.36
2022-09-03T17:02:42.607Z,21.11
2022-09-03T17:05:21.452Z,21.07
2022-09-03T17:08:07.586Z,20.85
2022-09-03T17:10:49.381Z,20.82
2022-09-03T17:13:32.131Z,20.75
2022-09-03T17:16:08.139Z,20.65
2022-09-03T17:18:34.875Z,20.58
2022-09-03T17:21:10.369Z,20.45
2022-09-03T17:23:49.191Z,20.42
2022-09-03T17:26:16.792Z,20.28
2022-09-03T17:28:57.955Z,20.22
2022-09-03T17:31:44.441Z,20.19
2022-09-03T17:34:37.495Z,20.11
2022-09-03T17:37:35.005Z,20.06
2022-09-03T17:40:08.996Z,20.03
2022-09-03T17:43:00.797Z,19.95
2022-09-03T17:45:37.630Z,19.92
2022-09-03T17:48:16.261Z,19.88
2022-09-03T17:50:51.306Z,19.83
2022-09-03T17:53:44.580Z,19.71
2022-09-03T17:56:25.297Z,19.69
2022-09-03T17:59:12.392Z,19.67
2022-09-03T18:01:48.724Z,19.62
2022-09-03T18:04:42.456Z,19.53
2022-09-03T18:07:23.766Z,19.47
2022-09-03T18:10:16.460Z,19.43
2022-09-03T18:13:23.699Z,19.34
2022-09-03T18:16:07.855Z,19.31
2022-09-03T18:18:38.725Z,19.28
2022-09-03T18:21:31.519Z,19.27
2022-09-03T18:24:17.633Z,19.16
2022-09-03T18:27:16.705Z,19.13
2022-09-03T18:30:16.136Z,19.13
2022-09-03T18:33:02.573Z,19.13
2022-09-03T18:35:49.462Z,19.05
2022-09-03T18:38:43.164Z,19.08
2022-09-03T18:41:56.070Z,19.03
2022-09-03T18:44:41.566Z,19.04
2022-09-03T18:50:54.693Z,18.87
2022-09-03T18:53:49.613Z,18.89
2022-09-03T18:56:54.164Z,18.86
2022-09-03T18:59:45.840Z,18.72
2022-09-03T19:02:53.183Z,18.71
2022-09-03T19:05:49.232Z,18.62
2022-09-03T19:08:44.085Z,18.60
2022-09-03T19:11:44.508Z,18.53
2022-09-03T23:29:32.972Z,17.10
